createdAt,value
2023-05-02T00:00:26.873Z,29.27
2023-05-02T00:01:26.880Z,29.25
2023-05-02T00:02:27.040Z,29.23
2023-05-02T00:03:26.988Z,29.23
2023-05-02T00:04:27.003Z,29.25
2023-05-02T00:05:26.942Z,29.23
2023-05-02T00:06:26.951Z,29.26
2023-05-02T00:07:26.959Z,29.31
2023-05-02T00:08:26.997Z,29.23
2023-05-02T00:09:26.989Z,29.25
2023-05-02T00:10:27.000Z,29.22
2023-05-02T00:11:26.999Z,29.21
2023-05-02T00:12:26.970Z,29.26
2023-05-02T00:13:26.964Z,29.23
2023-05-02T00:14:26.951Z,29.25
2023-05-02T00:15:26.950Z,29.21
2023-05-02T00:16:26.974Z,29.21
2023-05-02T00:17:27.044Z,29.22
2023-05-02T00:18:26.940Z,29.23
2023-05-02T00:19:26.943Z,29.22
2023-05-02T00:20:26.924Z,29.21
2023-05-02T00:21:26.915Z,29.25
2023-05-02T00:22:26.936Z,29.21
2023-05-02T00:23:26.929Z,29.21
2023-05-02T00:24:26.915Z,29.21
2023-05-02T00:25:26.919Z,29.22
2023-05-02T00:26:26.928Z,29.18
2023-05-02T00:27:26.888Z,29.18
2023-05-02T00:28:26.892Z,29.23
2023-05-02T00:29:26.894Z,29.21
2023-05-02T00:30:26.904Z,29.18
2023-05-02T00:31:26.931Z,29.21
2023-05-02T00:32:26.901Z,29.22
2023-05-02T00:33:26.922Z,29.20
2023-05-02T00:34:26.882Z,29.20
2023-05-02T00:35:26.867Z,29.18
2023-05-02T00:36:26.872Z,29.21
2023-05-02T00:37:26.873Z,29.21
2023-05-02T00:38:26.877Z,29.22
2023-05-02T00:39:26.887Z,29.18
2023-05-02T00:40:26.873Z,29.18
2023-05-02T00:41:26.884Z,29.19
2023-05-02T00:42:26.867Z,29.17
2023-05-02T00:43:26.854Z,29.17
2023-05-02T00:44:26.859Z,29.18
2023-05-02T00:45:26.859Z,29.14
2023-05-02T00:46:26.875Z,29.14
2023-05-02T00:47:26.886Z,29.15
2023-05-02T00:48:26.868Z,29.12
2023-05-02T00:49:26.828Z,29.19
2023-05-02T00:50:26.834Z,29.18
2023-05-02T00:51:26.831Z,29.17
2023-05-02T00:52:26.835Z,29.19
2023-05-02T00:53:26.821Z,29.21
2023-05-02T00:54:26.834Z,29.15
2023-05-02T00:55:26.829Z,29.14
2023-05-02T00:56:26.837Z,29.17
2023-05-02T00:57:26.869Z,29.18
2023-05-02T00:58:26.880Z,29.15
2023-05-02T00:59:26.922Z,29.15
2023-05-02T01:00:28.386Z,29.19
2023-05-02T01:01:27.022Z,29.11
2023-05-02T01:02:27.094Z,29.15
2023-05-02T01:03:27.225Z,29.17
2023-05-02T01:04:27.009Z,29.14
2023-05-02T01:05:27.044Z,29.15
2023-05-02T01:06:27.091Z,29.14
2023-05-02T01:07:27.066Z,29.14
2023-05-02T01:08:27.089Z,29.11
2023-05-02T01:09:27.093Z,29.17
2023-05-02T01:10:27.135Z,29.14
2023-05-02T01:11:27.120Z,29.18
2023-05-02T01:12:27.127Z,29.15
2023-05-02T01:13:27.146Z,29.17
2023-05-02T01:14:27.154Z,29.14
2023-05-02T01:15:27.170Z,29.12
2023-05-02T01:16:27.249Z,29.14
2023-05-02T01:17:27.229Z,29.11
2023-05-02T01:18:27.192Z,29.15
2023-05-02T01:19:27.211Z,29.14
2023-05-02T01:20:27.231Z,29.14
2023-05-02T01:21:27.265Z,29.17
2023-05-02T01:22:27.263Z,29.12
2023-05-02T01:23:27.269Z,29.14
2023-05-02T01:24:27.273Z,29.14
2023-05-02T01:25:27.270Z,29.17
2023-05-02T01:26:27.323Z,29.15
2023-05-02T01:27:27.274Z,29.15
2023-05-02T01:28:27.272Z,29.12
2023-05-02T01:29:27.298Z,29.12
2023-05-02T01:30:27.312Z,29.18
2023-05-02T01:31:27.340Z,29.12
2023-05-02T01:32:27.353Z,29.14
2023-05-02T01:33:27.307Z,29.15
2023-05-02T01:34:27.339Z,29.14
2023-05-02T01:35:27.327Z,29.15
2023-05-02T01:36:27.325Z,29.15
2023-05-02T01:37:27.328Z,29.14
2023-05-02T01:38:27.348Z,29.14
2023-05-02T01:39:27.385Z,29.12
2023-05-02T01:40:27.334Z,29.11
2023-05-02T01:41:27.355Z,29.17
2023-05-02T01:42:27.355Z,29.14
2023-05-02T01:43:27.438Z,29.10
2023-05-02T01:44:27.375Z,29.18
2023-05-02T01:45:27.374Z,29.14
2023-05-02T01:46:27.448Z,29.15
2023-05-02T01:47:27.430Z,29.14
2023-05-02T01:48:27.534Z,29.11
2023-05-02T01:49:27.401Z,29.15
2023-05-02T01:50:27.415Z,29.12
2023-05-02T01:51:27.449Z,29.12
2023-05-02T01:52:27.458Z,29.08
2023-05-02T01:53:27.491Z,29.12
2023-05-02T01:54:27.516Z,29.08
2023-05-02T01:55:27.532Z,29.10
2023-05-02T01:56:27.610Z,29.11
2023-05-02T01:57:27.582Z,29.10
2023-05-02T01:58:27.587Z,29.15
2023-05-02T01:59:27.640Z,29.11
2023-05-02T02:00:27.648Z,29.07
2023-05-02T02:01:27.764Z,29.09
2023-05-02T02:02:27.656Z,29.08
2023-05-02T02:03:27.711Z,29.12
2023-05-02T02:04:27.692Z,29.15
2023-05-02T02:05:27.648Z,29.10
2023-05-02T02:06:27.735Z,29.12
2023-05-02T02:07:27.656Z,29.10
2023-05-02T02:08:27.683Z,29.11
2023-05-02T02:09:27.673Z,29.09
2023-05-02T02:10:27.647Z,29.04
2023-05-02T02:11:27.658Z,29.11
2023-05-02T02:12:27.657Z,29.12
2023-05-02T02:13:27.651Z,29.07
2023-05-02T02:14:27.649Z,29.10
2023-05-02T02:15:27.651Z,29.10
2023-05-02T02:16:27.667Z,29.06
2023-05-02T02:17:27.672Z,29.11
2023-05-02T02:18:27.645Z,29.12
2023-05-02T02:19:27.677Z,29.09
2023-05-02T02:20:27.724Z,29.10
2023-05-02T02:21:27.755Z,29.08
2023-05-02T02:22:27.779Z,29.07
2023-05-02T02:23:27.808Z,29.14
2023-05-02T02:24:27.834Z,29.06
2023-05-02T02:25:27.873Z,29.07
2023-05-02T02:26:27.896Z,29.08
2023-05-02T02:27:27.913Z,29.08
2023-05-02T02:28:27.942Z,29.08
2023-05-02T02:29:27.969Z,29.03
2023-05-02T02:30:27.957Z,29.06
2023-05-02T02:31:28.078Z,29.03
2023-05-02T02:32:28.027Z,29.04
2023-05-02T02:33:28.049Z,29.05
2023-05-02T02:34:28.039Z,29.07
2023-05-02T02:35:28.051Z,29.04
2023-05-02T02:36:28.069Z,29.06
2023-05-02T02:37:28.077Z,29.08
2023-05-02T02:38:28.103Z,29.04
2023-05-02T02:39:28.128Z,29.04
2023-05-02T02:40:28.153Z,29.08
2023-05-02T02:41:28.194Z,29.06
2023-05-02T02:42:28.214Z,29.03
2023-05-02T02:43:28.250Z,29.07
2023-05-02T02:44:28.271Z,29.04
2023-05-02T02:45:28.281Z,29.05
2023-05-02T02:46:28.430Z,29.04
2023-05-02T02:47:28.379Z,29.05
2023-05-02T02:48:28.366Z,29.08
2023-05-02T02:49:28.396Z,29.02
2023-05-02T02:50:28.385Z,29.08
2023-05-02T02:51:28.394Z,29.07
2023-05-02T02:52:28.373Z,29.01
2023-05-02T02:53:28.362Z,29.03
2023-05-02T02:54:28.365Z,29.03
2023-05-02T02:55:28.357Z,29.04
2023-05-02T02:56:28.354Z,29.05
2023-05-02T02:57:28.354Z,29.07
2023-05-02T02:58:28.361Z,29.01
2023-05-02T02:59:28.355Z,29.01
2023-05-02T03:00:28.355Z,28.98
2023-05-02T03:01:28.359Z,29.03
2023-05-02T03:02:28.415Z,29.03
2023-05-02T03:03:28.388Z,29.08
2023-05-02T03:04:28.336Z,29.01
2023-05-02T03:05:28.329Z,29.00
2023-05-02T03:06:28.387Z,29.06
2023-05-02T03:07:28.325Z,29.02
2023-05-02T03:08:28.323Z,29.04
2023-05-02T03:09:28.347Z,29.01
2023-05-02T03:10:28.347Z,29.04
2023-05-02T03:11:29.534Z,29.01
2023-05-02T03:12:28.385Z,29.01
2023-05-02T03:13:28.396Z,29.00
2023-05-02T03:14:28.396Z,29.03
2023-05-02T03:15:28.462Z,28.98
2023-05-02T03:16:28.516Z,29.00
2023-05-02T03:17:28.518Z,29.01
2023-05-02T03:18:28.504Z,29.04
2023-05-02T03:19:28.528Z,29.01
2023-05-02T03:20:28.538Z,29.00
2023-05-02T03:21:28.564Z,29.01
2023-05-02T03:22:28.575Z,29.01
2023-05-02T03:23:28.583Z,29.02
2023-05-02T03:24:28.622Z,29.05
2023-05-02T03:25:28.620Z,29.00
2023-05-02T03:26:28.616Z,28.97
2023-05-02T03:27:28.624Z,28.98
2023-05-02T03:28:28.664Z,28.98
2023-05-02T03:29:28.678Z,29.01
2023-05-02T03:30:28.665Z,29.02
2023-05-02T03:31:28.754Z,29.04
2023-05-02T03:32:28.750Z,28.98
2023-05-02T03:33:28.717Z,28.98
2023-05-02T03:34:28.738Z,29.00
2023-05-02T03:35:28.776Z,28.98
2023-05-02T03:36:28.805Z,28.98
2023-05-02T03:37:28.845Z,29.04
2023-05-02T03:38:28.841Z,28.98
2023-05-02T03:39:28.852Z,29.01
2023-05-02T03:40:28.881Z,29.00
2023-05-02T03:41:28.903Z,28.94
2023-05-02T03:42:28.923Z,28.96
2023-05-02T03:43:28.934Z,28.97
2023-05-02T03:44:28.965Z,28.95
2023-05-02T03:45:28.980Z,29.01
2023-05-02T03:46:28.993Z,28.97
2023-05-02T03:47:28.999Z,28.97
2023-05-02T03:48:28.993Z,28.97
2023-05-02T03:49:29.005Z,28.98
2023-05-02T03:50:28.977Z,28.96
2023-05-02T03:51:28.981Z,28.96
2023-05-02T03:52:28.982Z,28.96
2023-05-02T03:53:28.958Z,28.97
2023-05-02T03:54:28.948Z,28.97
2023-05-02T03:55:28.968Z,28.87
2023-05-02T03:56:28.938Z,28.96
2023-05-02T03:57:28.944Z,28.91
2023-05-02T03:58:28.936Z,28.97
2023-05-02T03:59:28.959Z,28.96
2023-05-02T04:00:28.934Z,28.87
2023-05-02T04:01:28.931Z,28.90
2023-05-02T04:02:29.181Z,28.91
2023-05-02T04:03:30.030Z,28.93
2023-05-02T04:04:28.961Z,28.94
2023-05-02T04:05:28.927Z,28.93
2023-05-02T04:06:28.969Z,28.89
2023-05-02T04:07:28.945Z,28.88
2023-05-02T04:08:28.886Z,28.91
2023-05-02T04:09:28.897Z,28.88
2023-05-02T04:10:28.890Z,28.93
2023-05-02T04:11:28.880Z,28.90
2023-05-02T04:12:28.861Z,28.93
2023-05-02T04:13:28.869Z,28.90
2023-05-02T04:14:28.863Z,28.92
2023-05-02T04:15:28.860Z,28.94
2023-05-02T04:16:28.842Z,28.87
2023-05-02T04:17:28.898Z,28.93
2023-05-02T04:18:28.832Z,28.93
2023-05-02T04:19:28.820Z,28.91
2023-05-02T04:20:28.813Z,28.88
2023-05-02T04:21:28.806Z,28.88
2023-05-02T04:22:28.821Z,28.90
2023-05-02T04:23:28.814Z,28.96
2023-05-02T04:24:28.796Z,28.90
2023-05-02T04:25:28.801Z,28.85
2023-05-02T04:26:28.788Z,28.92
2023-05-02T04:27:28.785Z,28.91
2023-05-02T04:28:28.780Z,28.90
2023-05-02T04:29:28.771Z,28.87
2023-05-02T04:30:28.778Z,28.84
2023-05-02T04:31:28.796Z,28.87
2023-05-02T04:32:28.825Z,28.83
2023-05-02T04:33:28.770Z,28.83
2023-05-02T04:34:28.739Z,28.91
2023-05-02T04:35:28.738Z,28.83
2023-05-02T04:36:28.748Z,28.84
2023-05-02T04:37:28.739Z,28.90
2023-05-02T04:38:28.723Z,28.84
2023-05-02T04:39:28.713Z,28.84
2023-05-02T04:40:28.707Z,28.87
2023-05-02T04:41:28.700Z,28.83
2023-05-02T04:42:28.706Z,28.83
2023-05-02T04:43:28.681Z,28.83
2023-05-02T04:44:28.686Z,28.79
2023-05-02T04:45:28.729Z,28.74
2023-05-02T04:46:28.842Z,28.82
2023-05-02T04:47:28.708Z,28.80
2023-05-02T04:48:28.645Z,28.82
2023-05-02T04:49:28.637Z,28.80
2023-05-02T04:50:28.629Z,28.82
2023-05-02T04:51:28.625Z,28.77
2023-05-02T04:52:28.617Z,28.82
2023-05-02T04:53:28.616Z,28.81
2023-05-02T04:54:28.610Z,28.83
2023-05-02T04:55:28.620Z,28.79
2023-05-02T04:56:28.640Z,28.80
2023-05-02T04:57:28.599Z,28.83
2023-05-02T04:58:28.596Z,28.79
2023-05-02T04:59:28.585Z,28.75
2023-05-02T05:00:28.566Z,28.72
2023-05-02T05:01:28.583Z,28.76
2023-05-02T05:02:28.604Z,28.79
2023-05-02T05:03:28.641Z,28.79
2023-05-02T05:04:28.537Z,28.80
2023-05-02T05:05:28.663Z,28.78
2023-05-02T05:06:28.659Z,28.75
2023-05-02T05:07:28.531Z,28.75
2023-05-02T05:08:28.523Z,28.75
2023-05-02T05:09:28.508Z,28.71
2023-05-02T05:10:28.510Z,28.75
2023-05-02T05:11:28.501Z,28.71
2023-05-02T05:12:28.495Z,28.72
2023-05-02T05:13:28.536Z,28.69
2023-05-02T05:14:28.483Z,28.69
2023-05-02T05:15:28.526Z,28.69
2023-05-02T05:16:28.555Z,28.75
2023-05-02T05:17:28.569Z,28.73
2023-05-02T05:18:28.451Z,28.72
2023-05-02T05:19:28.467Z,28.75
2023-05-02T05:20:28.454Z,28.72
2023-05-02T05:21:28.476Z,28.75
2023-05-02T05:22:28.520Z,28.72
2023-05-02T05:23:28.495Z,28.69
2023-05-02T05:24:28.508Z,28.74
2023-05-02T05:25:28.556Z,28.64
2023-05-02T05:26:28.573Z,28.65
2023-05-02T05:27:28.538Z,28.74
2023-05-02T05:28:28.535Z,28.68
2023-05-02T05:29:28.540Z,28.72
2023-05-02T05:30:28.548Z,28.77
2023-05-02T05:31:28.672Z,28.79
2023-05-02T05:32:28.580Z,28.72
2023-05-02T05:33:28.573Z,28.78
2023-05-02T05:34:28.560Z,28.71
2023-05-02T05:35:28.528Z,28.90
2023-05-02T05:36:28.525Z,29.57
2023-05-02T05:37:28.524Z,30.06
2023-05-02T05:38:28.528Z,30.27
2023-05-02T05:39:28.518Z,30.80
2023-05-02T05:40:28.506Z,31.36
2023-05-02T05:41:28.497Z,31.50
2023-05-02T05:42:28.503Z,31.45
2023-05-02T05:43:28.494Z,31.63
2023-05-02T05:44:28.492Z,31.95
2023-05-02T05:45:28.480Z,32.11
2023-05-02T05:46:28.527Z,32.43
2023-05-02T05:47:28.653Z,32.80
2023-05-02T05:48:28.495Z,32.94
2023-05-02T05:49:28.446Z,33.18
2023-05-02T05:50:28.520Z,33.48
2023-05-02T05:51:28.512Z,32.93
2023-05-02T05:52:28.485Z,33.10
2023-05-02T05:53:28.494Z,33.26
2023-05-02T05:54:28.470Z,33.23
2023-05-02T05:55:28.449Z,33.33
2023-05-02T05:56:28.463Z,33.50
2023-05-02T05:57:28.515Z,33.93
2023-05-02T05:58:28.484Z,33.56
2023-05-02T05:59:28.395Z,33.37
2023-05-02T06:00:28.527Z,33.65
2023-05-02T06:01:28.389Z,33.67
2023-05-02T06:02:28.621Z,33.73
2023-05-02T06:03:28.460Z,33.73
2023-05-02T06:04:28.390Z,33.70
2023-05-02T06:05:28.593Z,33.63
2023-05-02T06:06:28.435Z,33.70
2023-05-02T06:07:28.311Z,33.68
2023-05-02T06:08:28.397Z,33.86
2023-05-02T06:09:28.385Z,33.86
2023-05-02T06:10:28.296Z,33.90
2023-05-02T06:11:28.275Z,33.93
2023-05-02T06:12:28.412Z,33.96
2023-05-02T06:13:28.238Z,33.92
2023-05-02T06:14:28.219Z,34.02
2023-05-02T06:15:28.220Z,34.05
2023-05-02T06:16:28.302Z,34.12
2023-05-02T06:17:28.205Z,34.09
2023-05-02T06:18:28.208Z,34.00
2023-05-02T06:19:28.185Z,34.11
2023-05-02T06:20:28.177Z,34.09
2023-05-02T06:21:28.153Z,34.05
2023-05-02T06:22:28.160Z,34.05
2023-05-02T06:23:28.131Z,34.03
2023-05-02T06:24:28.130Z,34.07
2023-05-02T06:25:28.269Z,34.08
2023-05-02T06:26:28.106Z,34.00
2023-05-02T06:27:28.103Z,34.11
2023-05-02T06:28:28.104Z,34.10
2023-05-02T06:29:28.110Z,34.02
2023-05-02T06:30:28.250Z,34.01
2023-05-02T06:31:28.263Z,33.96
2023-05-02T06:32:28.273Z,33.89
2023-05-02T06:33:28.266Z,33.87
2023-05-02T06:34:28.206Z,33.89
2023-05-02T06:35:28.211Z,33.83
2023-05-02T06:36:28.192Z,33.96
2023-05-02T06:37:28.199Z,33.88
2023-05-02T06:38:28.161Z,33.78
2023-05-02T06:39:28.151Z,33.73
2023-05-02T06:40:28.172Z,33.72
2023-05-02T06:41:28.283Z,33.87
2023-05-02T06:42:28.118Z,33.78
2023-05-02T06:43:28.108Z,34.22
2023-05-02T06:44:28.112Z,34.11
2023-05-02T06:45:28.114Z,34.06
2023-05-02T06:46:28.138Z,34.21
2023-05-02T06:47:28.265Z,33.93
2023-05-02T06:48:28.203Z,33.95
2023-05-02T06:49:28.298Z,33.94
2023-05-02T06:50:28.194Z,33.84
2023-05-02T06:51:28.205Z,33.77
2023-05-02T06:52:28.175Z,33.73
2023-05-02T06:53:28.160Z,33.71
2023-05-02T06:54:28.115Z,33.62
2023-05-02T06:55:28.105Z,33.68
2023-05-02T06:56:28.133Z,33.57
2023-05-02T06:57:28.088Z,33.63
2023-05-02T06:58:28.152Z,33.61
2023-05-02T06:59:28.194Z,33.57
2023-05-02T07:00:28.272Z,33.57
2023-05-02T07:01:28.345Z,33.63
2023-05-02T07:02:28.376Z,33.59
2023-05-02T07:03:28.448Z,33.55
2023-05-02T07:04:28.470Z,33.49
2023-05-02T07:05:28.550Z,33.49
2023-05-02T07:06:28.562Z,33.51
2023-05-02T07:07:28.610Z,33.49
2023-05-02T07:08:28.690Z,33.54
2023-05-02T07:09:28.688Z,33.60
2023-05-02T07:10:28.757Z,33.60
2023-05-02T07:11:28.985Z,33.58
2023-05-02T07:12:29.038Z,33.59
2023-05-02T07:13:28.914Z,33.61
2023-05-02T07:14:29.023Z,33.56
2023-05-02T07:15:29.044Z,33.55
2023-05-02T07:16:29.866Z,33.52
2023-05-02T07:17:28.978Z,33.55
2023-05-02T07:18:28.919Z,33.56
2023-05-02T07:19:29.008Z,33.59
2023-05-02T07:20:28.920Z,33.54
2023-05-02T07:21:28.958Z,33.67
2023-05-02T07:22:28.923Z,33.53
2023-05-02T07:23:28.865Z,33.58
2023-05-02T07:24:28.954Z,33.64
2023-05-02T07:25:28.889Z,33.66
2023-05-02T07:26:29.119Z,33.65
2023-05-02T07:27:29.149Z,33.73
2023-05-02T07:28:29.056Z,33.62
2023-05-02T07:29:29.103Z,33.71
2023-05-02T07:30:29.130Z,33.76
2023-05-02T07:31:29.279Z,33.75
2023-05-02T07:32:29.394Z,33.84
2023-05-02T07:33:29.077Z,33.80
2023-05-02T07:34:29.082Z,33.90
2023-05-02T07:35:29.056Z,33.93
2023-05-02T07:36:29.118Z,34.20
2023-05-02T07:37:28.974Z,33.89
2023-05-02T07:38:29.036Z,33.24
2023-05-02T07:39:28.987Z,32.67
2023-05-02T07:40:29.063Z,30.38
2023-05-02T07:41:29.138Z,30.70
2023-05-02T07:42:29.108Z,31.92
2023-05-02T07:43:29.091Z,32.32
2023-05-02T07:44:29.481Z,32.42
2023-05-02T07:45:29.084Z,32.39
2023-05-02T07:46:29.131Z,32.51
2023-05-02T07:47:29.179Z,32.55
2023-05-02T07:48:29.240Z,32.58
2023-05-02T07:49:29.302Z,32.69
2023-05-02T07:50:29.342Z,32.70
2023-05-02T07:51:29.406Z,32.80
2023-05-02T07:52:29.445Z,32.93
2023-05-02T07:53:29.511Z,32.88
2023-05-02T07:54:29.554Z,32.95
2023-05-02T07:55:29.594Z,33.17
2023-05-02T07:56:29.621Z,33.18
2023-05-02T07:57:29.691Z,33.51
2023-05-02T07:58:29.718Z,33.41
2023-05-02T07:59:29.740Z,33.44
2023-05-02T08:00:29.796Z,33.40
2023-05-02T08:01:29.815Z,33.37
2023-05-02T08:02:29.983Z,33.80
2023-05-02T08:03:30.047Z,33.66
2023-05-02T08:04:30.037Z,33.88
2023-05-02T08:05:30.018Z,33.72
2023-05-02T08:06:30.068Z,33.85
2023-05-02T08:07:29.983Z,33.88
2023-05-02T08:08:29.946Z,33.67
2023-05-02T08:09:29.917Z,33.65
2023-05-02T08:10:29.912Z,33.70
2023-05-02T08:11:29.878Z,33.67
2023-05-02T08:12:29.863Z,33.58
2023-05-02T08:13:29.846Z,33.55
2023-05-02T08:14:29.820Z,33.60
2023-05-02T08:15:29.888Z,33.64
2023-05-02T08:16:30.028Z,33.62
2023-05-02T08:17:29.831Z,33.54
2023-05-02T08:18:29.849Z,33.53
2023-05-02T08:19:29.746Z,33.82
2023-05-02T08:20:29.689Z,33.92
2023-05-02T08:21:29.717Z,33.92
2023-05-02T08:22:29.705Z,33.55
2023-05-02T08:23:29.694Z,33.34
2023-05-02T08:24:29.661Z,33.29
2023-05-02T08:25:29.641Z,33.02
2023-05-02T08:26:29.617Z,32.95
2023-05-02T08:27:29.599Z,32.85
2023-05-02T08:28:29.584Z,32.49
2023-05-02T08:29:29.597Z,32.23
2023-05-02T08:30:29.533Z,32.14
2023-05-02T08:31:29.612Z,31.39
2023-05-02T08:32:35.571Z,30.13
2023-05-02T08:33:30.730Z,30.48
2023-05-02T08:34:29.509Z,30.37
2023-05-02T08:35:29.516Z,30.13
2023-05-02T08:36:29.553Z,30.60
2023-05-02T08:37:29.508Z,31.13
2023-05-02T08:38:29.523Z,31.50
2023-05-02T08:39:29.522Z,31.06
2023-05-02T08:40:40.872Z,30.89
2023-05-02T08:41:30.526Z,31.23
2023-05-02T08:42:29.532Z,31.20
2023-05-02T08:43:29.535Z,31.65
2023-05-02T08:44:29.536Z,31.44
2023-05-02T08:45:29.569Z,31.82
2023-05-02T08:46:30.285Z,31.68
2023-05-02T08:47:29.618Z,32.69
2023-05-02T08:48:29.621Z,33.42
2023-05-02T08:49:29.748Z,32.96
2023-05-02T08:50:30.209Z,32.98
2023-05-02T08:51:29.826Z,33.17
2023-05-02T08:52:29.620Z,33.69
2023-05-02T08:53:29.655Z,33.67
2023-05-02T08:54:29.653Z,33.76
2023-05-02T08:55:29.718Z,33.76
2023-05-02T08:56:29.777Z,33.80
2023-05-02T08:57:29.845Z,33.86
2023-05-02T08:58:29.860Z,33.92
2023-05-02T08:59:29.863Z,34.37
2023-05-02T09:00:29.890Z,34.49
2023-05-02T09:01:29.964Z,34.42
2023-05-02T09:02:30.026Z,34.61
2023-05-02T09:03:30.056Z,34.44
2023-05-02T09:04:30.062Z,34.49
2023-05-02T09:05:30.141Z,34.55
2023-05-02T09:06:30.344Z,34.50
2023-05-02T09:07:30.130Z,34.50
2023-05-02T09:08:30.290Z,34.66
2023-05-02T09:09:30.177Z,34.74
2023-05-02T09:10:30.156Z,34.76
2023-05-02T09:11:30.148Z,34.84
2023-05-02T09:12:30.304Z,34.97
2023-05-02T09:13:30.163Z,35.00
2023-05-02T09:14:30.154Z,34.99
2023-05-02T09:15:30.160Z,35.23
2023-05-02T09:16:30.229Z,35.09
2023-05-02T09:17:30.355Z,34.97
2023-05-02T09:18:30.331Z,35.16
2023-05-02T09:19:30.381Z,35.20
2023-05-02T09:20:30.413Z,35.15
2023-05-02T09:21:30.479Z,35.17
2023-05-02T09:22:30.511Z,35.20
2023-05-02T09:23:30.623Z,35.08
2023-05-02T09:24:30.600Z,35.21
2023-05-02T09:25:30.621Z,35.32
2023-05-02T09:26:31.721Z,35.27
2023-05-02T09:27:30.755Z,35.32
2023-05-02T09:28:30.767Z,35.36
2023-05-02T09:29:30.814Z,35.34
2023-05-02T09:30:30.837Z,35.34
2023-05-02T09:31:54.275Z,35.26
2023-05-02T09:32:31.926Z,35.30
2023-05-02T09:33:30.882Z,35.46
2023-05-02T09:34:30.807Z,35.40
2023-05-02T09:35:30.780Z,35.41
2023-05-02T09:36:30.748Z,35.44
2023-05-02T09:37:30.736Z,35.49
2023-05-02T09:38:31.711Z,35.44
2023-05-02T09:39:30.673Z,35.45
2023-05-02T09:40:30.682Z,35.32
2023-05-02T09:41:30.652Z,35.30
2023-05-02T09:42:30.621Z,35.44
2023-05-02T09:43:30.721Z,35.30
2023-05-02T09:44:30.749Z,35.37
2023-05-02T09:45:30.624Z,34.81
2023-05-02T09:46:30.693Z,34.73
2023-05-02T09:47:30.702Z,34.40
2023-05-02T09:48:30.736Z,33.33
2023-05-02T09:49:30.760Z,33.48
2023-05-02T09:50:31.245Z,32.54
2023-05-02T09:51:30.736Z,31.81
2023-05-02T09:52:30.712Z,32.35
2023-05-02T09:53:31.214Z,32.12
2023-05-02T09:54:30.741Z,31.18
2023-05-02T09:55:30.708Z,31.00
2023-05-02T09:56:30.715Z,31.65
2023-05-02T09:57:30.711Z,32.22
2023-05-02T09:58:32.722Z,31.92
2023-05-02T09:59:31.603Z,32.18
2023-05-02T10:00:30.751Z,32.56
2023-05-02T10:01:30.827Z,33.17
2023-05-02T10:02:30.743Z,32.63
2023-05-02T10:03:30.789Z,32.01
2023-05-02T10:04:30.963Z,32.26
2023-05-02T10:05:31.710Z,33.07
2023-05-02T10:06:30.999Z,33.04
2023-05-02T10:07:31.071Z,32.97
2023-05-02T10:08:31.164Z,32.85
2023-05-02T10:09:31.213Z,32.89
2023-05-02T10:10:31.246Z,33.11
2023-05-02T10:11:31.268Z,32.50
2023-05-02T10:12:31.249Z,32.95
2023-05-02T10:13:31.250Z,32.64
2023-05-02T10:14:31.277Z,33.06
2023-05-02T10:15:31.313Z,33.34
2023-05-02T10:16:31.399Z,33.47
2023-05-02T10:17:31.299Z,33.65
2023-05-02T10:18:31.325Z,33.99
2023-05-02T10:19:31.280Z,33.93
2023-05-02T10:20:31.282Z,33.93
2023-05-02T10:21:31.295Z,33.94
2023-05-02T10:22:31.282Z,33.96
2023-05-02T10:23:31.273Z,33.99
2023-05-02T10:24:31.257Z,34.01
2023-05-02T10:25:31.260Z,34.04
2023-05-02T10:26:31.305Z,34.05
2023-05-02T10:27:31.246Z,34.19
2023-05-02T10:28:31.273Z,34.18
2023-05-02T10:29:31.220Z,34.07
2023-05-02T10:30:31.200Z,34.09
2023-05-02T10:31:31.257Z,34.21
2023-05-02T10:32:31.236Z,34.01
2023-05-02T10:33:31.181Z,34.15
2023-05-02T10:34:31.285Z,34.17
2023-05-02T10:35:31.153Z,34.17
2023-05-02T10:36:31.135Z,34.12
2023-05-02T10:37:31.133Z,34.69
2023-05-02T10:38:31.122Z,34.38
2023-05-02T10:39:31.086Z,34.28
2023-05-02T10:40:31.115Z,34.04
2023-05-02T10:41:31.110Z,34.24
2023-05-02T10:42:31.146Z,34.34
2023-05-02T10:43:31.183Z,34.56
2023-05-02T10:44:31.217Z,34.21
2023-05-02T10:45:31.252Z,34.06
2023-05-02T10:46:31.313Z,34.47
2023-05-02T10:47:31.381Z,35.34
2023-05-02T10:48:31.475Z,34.48
2023-05-02T10:49:31.397Z,34.44
2023-05-02T10:50:31.439Z,34.43
2023-05-02T10:51:31.469Z,34.22
2023-05-02T10:52:31.524Z,34.04
2023-05-02T10:53:31.576Z,33.86
2023-05-02T10:54:31.604Z,33.64
2023-05-02T10:55:31.642Z,33.50
2023-05-02T10:56:31.699Z,33.64
2023-05-02T10:57:31.750Z,33.44
2023-05-02T10:58:31.750Z,33.42
2023-05-02T10:59:31.798Z,33.72
2023-05-02T11:00:31.817Z,33.36
2023-05-02T11:01:31.893Z,33.22
2023-05-02T11:02:32.005Z,33.06
2023-05-02T11:03:32.013Z,33.06
2023-05-02T11:04:32.045Z,32.90
2023-05-02T11:05:32.066Z,32.83
2023-05-02T11:06:32.149Z,32.89
2023-05-02T11:07:32.162Z,32.79
2023-05-02T11:08:32.303Z,32.69
2023-05-02T11:09:32.197Z,32.61
2023-05-02T11:10:32.144Z,32.59
2023-05-02T11:11:32.146Z,32.40
2023-05-02T11:12:32.121Z,32.35
2023-05-02T11:13:32.109Z,32.27
2023-05-02T11:14:32.082Z,32.24
2023-05-02T11:15:32.087Z,32.12
2023-05-02T11:16:32.198Z,32.09
2023-05-02T11:17:32.215Z,32.05
2023-05-02T11:18:33.222Z,31.95
2023-05-02T11:19:32.300Z,31.87
2023-05-02T11:20:33.218Z,31.87
2023-05-02T11:21:32.414Z,31.77
2023-05-02T11:22:32.470Z,31.70
2023-05-02T11:23:32.818Z,31.70
2023-05-02T11:24:32.644Z,31.61
2023-05-02T11:25:32.614Z,31.54
2023-05-02T11:26:32.687Z,31.57
2023-05-02T11:27:32.694Z,31.48
2023-05-02T11:28:32.793Z,31.42
2023-05-02T11:29:32.722Z,31.41
2023-05-02T11:30:32.728Z,31.33
2023-05-02T11:31:32.718Z,31.34
2023-05-02T11:32:32.811Z,31.27
2023-05-02T11:33:32.664Z,31.33
2023-05-02T11:34:32.660Z,31.30
2023-05-02T11:35:32.681Z,31.27
2023-05-02T11:36:32.639Z,31.26
2023-05-02T11:37:32.681Z,31.30
2023-05-02T11:38:32.634Z,31.21
2023-05-02T11:39:32.674Z,31.17
2023-05-02T11:40:32.716Z,31.17
2023-05-02T11:41:32.846Z,31.17
2023-05-02T11:42:32.805Z,31.12
2023-05-02T11:43:33.251Z,31.14
2023-05-02T11:44:32.851Z,31.12
2023-05-02T11:45:32.886Z,31.07
2023-05-02T11:46:32.957Z,31.07
2023-05-02T11:47:33.049Z,31.09
2023-05-02T11:48:33.028Z,31.01
2023-05-02T11:49:33.131Z,31.02
2023-05-02T11:50:33.130Z,31.01
2023-05-02T11:51:33.141Z,31.04
2023-05-02T11:52:33.174Z,30.90
2023-05-02T11:53:33.298Z,30.91
2023-05-02T11:54:33.269Z,30.98
2023-05-02T11:55:33.322Z,30.88
2023-05-02T11:56:33.420Z,30.88
2023-05-02T11:57:33.425Z,30.88
2023-05-02T11:58:33.872Z,30.85
2023-05-02T11:59:33.520Z,30.82
2023-05-02T12:00:33.591Z,30.80
2023-05-02T12:01:33.625Z,30.83
2023-05-02T12:02:33.830Z,30.78
2023-05-02T12:03:34.224Z,30.77
2023-05-02T12:04:33.771Z,30.74
2023-05-02T12:05:34.002Z,30.74
2023-05-02T12:06:33.852Z,30.74
2023-05-02T12:07:34.062Z,30.68
2023-05-02T12:08:33.948Z,30.63
2023-05-02T12:09:34.141Z,30.61
2023-05-02T12:10:33.988Z,30.63
2023-05-02T12:11:34.019Z,30.60
2023-05-02T12:12:34.165Z,30.53
2023-05-02T12:13:34.130Z,30.54
2023-05-02T12:14:34.233Z,30.54
2023-05-02T12:15:34.269Z,30.50
2023-05-02T12:16:34.349Z,30.56
2023-05-02T12:17:34.404Z,30.53
2023-05-02T12:18:34.917Z,30.46
2023-05-02T12:19:34.278Z,30.48
2023-05-02T12:20:34.292Z,30.42
2023-05-02T12:21:34.328Z,30.40
2023-05-02T12:22:34.345Z,30.36
2023-05-02T12:23:35.383Z,30.37
2023-05-02T12:24:34.417Z,30.40
2023-05-02T12:25:34.435Z,30.32
2023-05-02T12:26:34.513Z,30.35
2023-05-02T12:27:34.494Z,30.32
2023-05-02T12:28:34.477Z,30.32
2023-05-02T12:29:34.459Z,30.32
2023-05-02T12:30:34.466Z,30.29
2023-05-02T12:31:34.457Z,30.28
2023-05-02T12:32:34.464Z,30.27
2023-05-02T12:33:34.436Z,30.27
2023-05-02T12:34:34.389Z,30.23
2023-05-02T12:35:34.383Z,30.23
2023-05-02T12:36:34.431Z,30.23
2023-05-02T12:37:34.341Z,30.23
2023-05-02T12:38:34.331Z,30.20
2023-05-02T12:39:34.319Z,30.18
2023-05-02T12:40:34.274Z,30.16
2023-05-02T12:41:34.326Z,30.19
2023-05-02T12:42:34.254Z,30.17
2023-05-02T12:43:34.844Z,30.09
2023-05-02T12:44:34.233Z,30.16
2023-05-02T12:45:34.216Z,30.15
2023-05-02T12:46:34.304Z,30.15
2023-05-02T12:47:34.237Z,30.12
2023-05-02T12:48:34.189Z,30.13
2023-05-02T12:49:34.162Z,30.13
2023-05-02T12:50:34.173Z,30.09
2023-05-02T12:51:34.193Z,30.08
2023-05-02T12:52:34.137Z,30.04